createdAt,value
2023-02-05T00:00:58.356Z,4.37
2023-02-05T00:03:26.278Z,7.27
2023-02-05T00:05:55.591Z,5.20
2023-02-05T00:08:23.504Z,12.53
2023-02-05T00:10:52.885Z,8.03
2023-02-05T00:13:20.791Z,7.90
2023-02-05T00:15:48.654Z,6.23
2023-02-05T00:18:16.621Z,4.80
2023-02-05T00:20:44.478Z,6.90
2023-02-05T00:23:13.755Z,8.30
2023-02-05T00:25:41.666Z,8.40
2023-02-05T00:28:09.605Z,7.40
2023-02-05T00:30:37.577Z,4.27
2023-02-05T00:33:05.563Z,7.93
2023-02-05T00:35:33.658Z,4.20
2023-02-05T00:38:01.680Z,2.63
2023-02-05T00:40:30.998Z,3.57
2023-02-05T00:42:58.876Z,9.73
2023-02-05T00:45:32.357Z,6.77
2023-02-05T00:48:00.583Z,6.27
2023-02-05T00:50:28.492Z,3.40
2023-02-05T00:52:56.415Z,5.87
2023-02-05T00:55:24.338Z,3.57
2023-02-05T00:57:53.631Z,5.73
2023-02-05T01:00:21.838Z,8.00
2023-02-05T01:02:49.980Z,6.50
2023-02-05T01:05:18.068Z,6.47
2023-02-05T01:07:45.966Z,4.33
2023-02-05T01:10:13.822Z,3.77
2023-02-05T01:12:41.707Z,4.07
2023-02-05T01:15:11.519Z,2.77
2023-02-05T01:17:39.392Z,4.90
2023-02-05T01:20:08.437Z,6.33
2023-02-05T01:22:36.353Z,5.87
2023-02-05T01:25:04.294Z,2.20
2023-02-05T01:27:33.586Z,8.97
2023-02-05T01:30:01.488Z,5.23
2023-02-05T01:32:30.787Z,3.23
2023-02-05T01:34:58.656Z,4.00
2023-02-05T01:37:26.597Z,4.00
2023-02-05T01:39:54.451Z,1.87
2023-02-05T01:42:23.187Z,4.87
2023-02-05T01:45:32.807Z,1.33
2023-02-05T01:48:02.938Z,5.20
2023-02-05T01:50:32.596Z,5.43
2023-02-05T01:53:01.373Z,5.43
2023-02-05T01:55:29.258Z,5.00
2023-02-05T01:57:57.191Z,5.73
2023-02-05T02:00:25.133Z,5.50
2023-02-05T02:02:53.038Z,4.20
2023-02-05T02:05:22.458Z,4.80
2023-02-05T02:07:50.376Z,8.27
2023-02-05T02:10:18.812Z,6.17
2023-02-05T02:12:47.552Z,8.37
2023-02-05T02:15:16.940Z,3.30
2023-02-05T02:17:46.931Z,4.87
2023-02-05T02:20:15.933Z,4.27
2023-02-05T02:22:56.673Z,4.23
2023-02-05T02:25:35.339Z,7.73
2023-02-05T02:28:05.485Z,5.23
2023-02-05T02:30:35.496Z,4.83
2023-02-05T02:33:07.106Z,11.47
2023-02-05T02:35:40.490Z,4.60
2023-02-05T02:38:11.457Z,6.07
2023-02-05T02:40:41.788Z,7.93
2023-02-05T02:43:12.217Z,6.90
2023-02-05T02:45:44.643Z,8.50
2023-02-05T02:48:12.592Z,7.53
2023-02-05T02:50:42.659Z,6.03
2023-02-05T02:53:12.726Z,11.33
2023-02-05T02:55:43.694Z,5.33
2023-02-05T02:58:16.695Z,6.87
2023-02-05T03:00:45.280Z,6.43
2023-02-05T03:03:13.723Z,7.70
2023-02-05T03:05:41.895Z,5.27
2023-02-05T03:08:13.688Z,3.60
2023-02-05T03:10:42.736Z,7.60
2023-02-05T03:13:11.144Z,9.83
2023-02-05T03:15:40.610Z,7.10
2023-02-05T03:18:08.560Z,4.90
2023-02-05T03:20:38.209Z,5.57
2023-02-05T03:23:06.106Z,7.50
2023-02-05T03:25:34.154Z,6.60
2023-02-05T03:28:02.224Z,10.70
2023-02-05T03:30:31.963Z,9.63
2023-02-05T03:33:04.290Z,7.87
2023-02-05T03:35:34.708Z,8.33
2023-02-05T03:38:12.634Z,5.10
2023-02-05T03:40:44.881Z,5.90
2023-02-05T03:43:14.715Z,1.70
2023-02-05T03:45:46.996Z,8.40
2023-02-05T03:48:22.396Z,10.00
2023-02-05T03:50:53.261Z,3.03
2023-02-05T03:53:23.539Z,3.43
2023-02-05T03:55:52.160Z,8.60
2023-02-05T03:58:20.928Z,7.23
2023-02-05T04:00:48.882Z,9.87
2023-02-05T04:03:18.115Z,8.40
2023-02-05T04:05:46.065Z,4.73
2023-02-05T04:08:13.905Z,3.23
2023-02-05T04:10:41.784Z,7.10
2023-02-05T04:13:09.679Z,6.13
2023-02-05T04:15:37.543Z,8.27
2023-02-05T04:18:05.532Z,5.07
2023-02-05T04:20:34.809Z,5.80
2023-02-05T04:23:02.696Z,9.00
2023-02-05T04:25:30.566Z,6.07
2023-02-05T04:27:58.499Z,3.23
2023-02-05T04:30:26.387Z,6.67
2023-02-05T04:32:54.287Z,7.83
2023-02-05T04:35:22.174Z,5.10
2023-02-05T04:37:51.414Z,8.73
2023-02-05T04:40:19.510Z,6.30
2023-02-05T04:42:47.429Z,8.13
2023-02-05T04:45:15.341Z,6.27
2023-02-05T04:47:43.188Z,4.23
2023-02-05T04:50:11.474Z,11.10
2023-02-05T04:52:39.318Z,5.50
2023-02-05T04:55:09.230Z,8.13
2023-02-05T04:57:37.803Z,5.67
2023-02-05T05:00:06.322Z,5.47
2023-02-05T05:02:34.224Z,7.43
2023-02-05T05:05:02.162Z,8.00
2023-02-05T05:07:31.106Z,5.63
2023-02-05T05:09:59.042Z,4.83
2023-02-05T05:12:28.337Z,3.37
2023-02-05T05:14:56.211Z,4.17
2023-02-05T05:17:24.353Z,4.07
2023-02-05T05:19:52.254Z,5.73
2023-02-05T05:22:20.135Z,8.33
2023-02-05T05:24:48.022Z,4.87
2023-02-05T05:27:16.654Z,6.27
2023-02-05T05:29:46.510Z,7.03
2023-02-05T05:32:14.461Z,4.57
2023-02-05T05:34:42.347Z,8.97
2023-02-05T05:37:10.243Z,7.90
2023-02-05T05:39:55.542Z,4.83
2023-02-05T05:42:39.844Z,8.97
2023-02-05T05:45:09.826Z,7.17
2023-02-05T05:47:37.733Z,7.97
2023-02-05T05:50:06.176Z,2.90
2023-02-05T05:52:34.100Z,6.43
2023-02-05T05:55:02.008Z,8.20
2023-02-05T05:57:29.941Z,10.03
2023-02-05T05:59:57.897Z,8.13
2023-02-05T06:02:27.316Z,2.50
2023-02-05T06:04:55.194Z,3.00
2023-02-05T06:07:23.107Z,7.00
2023-02-05T06:09:51.022Z,4.50
2023-02-05T06:12:18.902Z,6.77
2023-02-05T06:14:46.797Z,4.30
2023-02-05T06:17:14.765Z,7.20
2023-02-05T06:19:44.077Z,6.07
2023-02-05T06:22:11.977Z,2.63
2023-02-05T06:24:39.819Z,4.47
2023-02-05T06:27:07.710Z,7.80
2023-02-05T06:29:35.670Z,2.83
2023-02-05T06:32:03.724Z,6.67
2023-02-05T06:34:31.754Z,1.67
2023-02-05T06:37:01.029Z,5.77
2023-02-05T06:39:29.095Z,4.80
2023-02-05T06:41:56.975Z,15.33
2023-02-05T06:44:25.346Z,15.73
2023-02-05T06:46:53.265Z,6.93
2023-02-05T06:49:21.223Z,6.93
2023-02-05T06:51:49.234Z,4.87
2023-02-05T06:54:18.530Z,11.40
2023-02-05T06:56:46.425Z,5.83
2023-02-05T06:59:14.352Z,12.73
2023-02-05T07:01:42.293Z,7.10
2023-02-05T07:04:10.227Z,6.40
2023-02-05T07:06:38.155Z,7.73
2023-02-05T07:09:06.021Z,6.27
2023-02-05T07:11:35.264Z,2.37
2023-02-05T07:14:03.209Z,5.60
2023-02-05T07:16:31.107Z,7.03
2023-02-05T07:18:59.119Z,9.33
2023-02-05T07:21:26.984Z,8.17
2023-02-05T07:23:54.873Z,8.77
2023-02-05T07:26:23.842Z,8.83
2023-02-05T07:28:53.140Z,4.00
2023-02-05T07:31:21.148Z,7.53
2023-02-05T07:33:49.121Z,8.10
2023-02-05T07:36:18.362Z,7.83
2023-02-05T07:38:46.675Z,14.03
2023-02-05T07:41:15.413Z,4.97
2023-02-05T07:43:43.393Z,8.97
2023-02-05T07:46:13.536Z,6.63
2023-02-05T07:48:41.466Z,12.77
2023-02-05T07:51:09.331Z,6.10
2023-02-05T07:53:37.193Z,7.40
2023-02-05T07:56:05.361Z,9.17
2023-02-05T07:58:33.341Z,6.07
2023-02-05T08:01:02.332Z,6.87
2023-02-05T08:03:31.911Z,12.03
2023-02-05T08:05:59.860Z,9.37
2023-02-05T08:08:27.766Z,8.60
2023-02-05T08:10:59.169Z,9.00
2023-02-05T08:13:27.175Z,9.17
2023-02-05T08:15:55.464Z,10.03
2023-02-05T08:18:23.549Z,12.20
2023-02-05T08:20:54.553Z,6.40
2023-02-05T08:23:22.427Z,8.40
2023-02-05T08:25:53.932Z,5.83
2023-02-05T08:28:21.864Z,7.03
2023-02-05T08:30:49.868Z,8.77
2023-02-05T08:33:17.936Z,10.23
2023-02-05T08:35:45.839Z,7.10
2023-02-05T08:38:15.042Z,10.97
2023-02-05T08:40:42.925Z,6.73
2023-02-05T08:43:10.890Z,9.73
2023-02-05T08:45:39.118Z,8.03
2023-02-05T08:48:07.061Z,6.23
2023-02-05T08:50:35.000Z,6.80
2023-02-05T08:53:02.859Z,6.70
2023-02-05T08:55:32.827Z,13.07
2023-02-05T08:58:00.850Z,11.97
2023-02-05T09:00:28.778Z,14.17
2023-02-05T09:02:56.690Z,11.20
2023-02-05T09:05:24.599Z,11.43
2023-02-05T09:07:52.535Z,9.37
2023-02-05T09:10:20.535Z,12.60
2023-02-05T09:12:49.905Z,15.27
2023-02-05T09:15:18.056Z,11.80
2023-02-05T09:17:46.337Z,19.07
2023-02-05T09:20:14.207Z,15.17
2023-02-05T09:22:42.129Z,12.47
2023-02-05T09:25:10.355Z,13.23
2023-02-05T09:27:38.740Z,16.33
2023-02-05T09:30:08.999Z,10.43
2023-02-05T09:32:36.914Z,18.87
2023-02-05T09:35:04.954Z,16.37
2023-02-05T09:37:32.853Z,7.33
2023-02-05T09:42:53.708Z,14.10
2023-02-05T09:45:35.574Z,10.53
2023-02-05T09:48:12.199Z,12.50
2023-02-05T09:50:41.420Z,17.37
2023-02-05T09:53:13.013Z,7.73
2023-02-05T09:55:44.730Z,9.70
2023-02-05T09:58:14.155Z,8.17
2023-02-05T10:00:46.584Z,7.90
2023-02-05T10:03:20.656Z,10.20
2023-02-05T10:05:51.636Z,4.40
2023-02-05T10:08:20.672Z,10.40
2023-02-05T10:10:49.517Z,7.23
2023-02-05T10:13:33.575Z,7.87
2023-02-05T10:16:20.066Z,5.37
2023-02-05T10:18:55.454Z,15.13
2023-02-05T10:21:35.867Z,11.73
2023-02-05T10:24:14.003Z,7.43
2023-02-05T10:26:44.312Z,11.40
2023-02-05T10:29:23.361Z,13.83
2023-02-05T10:31:57.379Z,11.93
2023-02-05T10:34:33.565Z,9.27
2023-02-05T10:37:01.562Z,14.03
2023-02-05T10:39:30.786Z,13.20
2023-02-05T10:42:00.218Z,11.77
2023-02-05T10:44:30.089Z,7.20
2023-02-05T10:47:03.641Z,12.90
2023-02-05T10:49:38.348Z,15.40
2023-02-05T10:52:06.295Z,9.90
2023-02-05T10:54:34.789Z,7.33
2023-02-05T10:57:02.682Z,12.27
2023-02-05T10:59:31.324Z,12.77
2023-02-05T11:02:04.061Z,10.53
2023-02-05T11:04:35.274Z,10.43
2023-02-05T11:07:06.204Z,5.93
2023-02-05T11:09:35.321Z,4.30
2023-02-05T11:12:04.260Z,6.87
2023-02-05T11:14:36.420Z,7.40
2023-02-05T11:17:10.094Z,6.43
2023-02-05T11:19:38.147Z,7.07
2023-02-05T11:22:06.470Z,7.07
2023-02-05T11:24:36.137Z,6.97
2023-02-05T11:27:30.508Z,6.03
2023-02-05T11:30:00.018Z,8.77
2023-02-05T11:32:39.130Z,3.70
2023-02-05T11:35:17.375Z,6.43
2023-02-05T11:37:45.276Z,10.20
2023-02-05T11:40:20.768Z,5.00
2023-02-05T11:42:49.894Z,10.47
2023-02-05T11:45:20.892Z,8.67
2023-02-05T11:47:50.181Z,8.57
2023-02-05T11:50:23.108Z,8.43
2023-02-05T11:52:50.991Z,5.87
2023-02-05T11:55:25.728Z,12.57
2023-02-05T11:57:59.654Z,6.50
2023-02-05T12:00:28.340Z,5.57
2023-02-05T12:03:11.485Z,5.97
2023-02-05T12:05:41.325Z,4.73
2023-02-05T12:08:12.298Z,8.87
2023-02-05T12:10:43.513Z,3.80
2023-02-05T12:13:16.793Z,2.90
2023-02-05T12:15:48.037Z,4.20
2023-02-05T12:18:23.122Z,5.27
2023-02-05T12:20:52.505Z,6.13
2023-02-05T12:23:31.588Z,4.23
2023-02-05T12:26:35.061Z,6.27
2023-02-05T12:29:09.664Z,5.20
2023-02-05T12:31:46.769Z,6.53
2023-02-05T12:34:24.402Z,3.43
2023-02-05T12:37:07.785Z,2.40
2023-02-05T12:39:46.272Z,3.20
2023-02-05T12:42:26.519Z,4.13
2023-02-05T12:45:01.095Z,5.87
2023-02-05T12:47:38.051Z,4.73
2023-02-05T12:50:13.753Z,5.03
2023-02-05T12:52:56.073Z,2.43
2023-02-05T12:55:30.872Z,4.37
2023-02-05T12:58:00.009Z,7.20
2023-02-05T13:00:29.779Z,6.67
2023-02-05T13:03:01.918Z,3.30
2023-02-05T13:05:33.069Z,6.93
2023-02-05T13:08:03.091Z,6.10
2023-02-05T13:10:35.411Z,6.00
2023-02-05T13:13:05.449Z,4.83
2023-02-05T13:15:35.991Z,5.47
2023-02-05T13:18:07.176Z,5.00
2023-02-05T13:20:55.289Z,3.07
2023-02-05T13:23:37.044Z,4.70
2023-02-05T13:26:22.416Z,3.67
2023-02-05T13:28:53.048Z,6.70
2023-02-05T13:31:24.287Z,3.37
2023-02-05T13:33:52.840Z,6.40
2023-02-05T13:37:03.062Z,3.17
2023-02-05T13:40:06.101Z,6.07
2023-02-05T13:42:53.639Z,3.53
2023-02-05T13:45:33.439Z,4.37
2023-02-05T13:48:26.403Z,2.30
2023-02-05T13:51:33.626Z,5.67
2023-02-05T13:54:12.298Z,3.55
2023-02-05T13:56:48.942Z,4.43
2023-02-05T13:59:18.405Z,4.50
2023-02-05T14:01:51.496Z,4.33
2023-02-05T14:04:21.922Z,6.05
2023-02-05T14:06:56.573Z,5.57
2023-02-05T14:09:25.964Z,5.63
2023-02-05T14:11:57.986Z,2.77
2023-02-05T14:14:31.089Z,4.13
2023-02-05T14:16:59.592Z,8.10
2023-02-05T14:19:56.000Z,2.43
2023-02-05T14:22:38.329Z,1.80
2023-02-05T14:25:11.043Z,7.47
2023-02-05T14:27:55.690Z,3.80
2023-02-05T14:30:51.889Z,1.93
2023-02-05T14:33:36.674Z,3.87
2023-02-05T14:36:39.326Z,5.83
2023-02-05T14:39:18.863Z,8.73
2023-02-05T14:41:53.004Z,4.63
2023-02-05T14:44:24.878Z,2.57
2023-02-05T14:47:02.419Z,6.23
2023-02-05T14:49:31.843Z,3.50
2023-02-05T14:52:00.652Z,8.98
2023-02-05T14:54:29.313Z,3.03
2023-02-05T14:57:10.466Z,5.37
2023-02-05T14:59:40.997Z,4.68
2023-02-05T15:02:41.988Z,5.32
2023-02-05T15:05:10.020Z,3.92
2023-02-05T15:07:37.923Z,5.82
2023-02-05T15:10:07.835Z,2.92
2023-02-05T15:12:53.865Z,2.35
2023-02-05T15:15:33.212Z,7.43
2023-02-05T15:18:07.508Z,4.28
2023-02-05T15:20:36.337Z,3.80
2023-02-05T15:23:18.426Z,3.03
2023-02-05T15:25:48.415Z,1.67
2023-02-05T15:28:23.183Z,3.27
2023-02-05T15:31:22.639Z,5.47
2023-02-05T15:33:55.782Z,7.60
2023-02-05T15:36:29.123Z,4.47
2023-02-05T15:39:04.058Z,6.87
2023-02-05T15:41:33.197Z,4.73
2023-02-05T15:44:01.973Z,4.30
2023-02-05T15:46:32.250Z,7.43
2023-02-05T15:49:00.311Z,4.40
2023-02-05T15:51:30.536Z,7.60
2023-02-05T15:53:59.218Z,4.83
2023-02-05T15:56:29.496Z,5.23
2023-02-05T15:59:00.176Z,7.63
2023-02-05T16:01:31.726Z,8.47
2023-02-05T16:03:59.664Z,5.23
2023-02-05T16:06:28.578Z,7.20
2023-02-05T16:08:57.354Z,6.80
2023-02-05T16:11:29.880Z,13.67
2023-02-05T16:14:08.007Z,10.43
2023-02-05T16:16:38.803Z,10.90
2023-02-05T16:19:07.462Z,8.47
2023-02-05T16:21:37.861Z,8.37
2023-02-05T16:24:07.219Z,7.43
2023-02-05T16:26:37.290Z,11.23
2023-02-05T16:29:07.845Z,8.20
2023-02-05T16:31:39.017Z,10.60
2023-02-05T16:34:07.262Z,4.77
2023-02-05T16:36:36.325Z,8.83
2023-02-05T16:39:05.680Z,5.63
2023-02-05T16:41:34.596Z,4.03
2023-02-05T16:44:03.758Z,7.13
2023-02-05T16:46:31.817Z,4.33
2023-02-05T16:49:01.653Z,8.73
2023-02-05T16:51:53.578Z,4.33
2023-02-05T16:54:33.127Z,6.80
2023-02-05T16:57:04.544Z,13.53
2023-02-05T16:59:34.082Z,11.03
2023-02-05T17:02:03.276Z,8.07
2023-02-05T17:04:33.659Z,14.43
2023-02-05T17:07:02.395Z,13.90
2023-02-05T17:09:34.746Z,24.00
2023-02-05T17:12:35.867Z,26.67
2023-02-05T17:15:04.720Z,25.07
2023-02-05T17:17:32.869Z,21.00
2023-02-05T17:20:06.372Z,17.37
2023-02-05T17:22:34.816Z,13.33
2023-02-05T17:25:05.116Z,16.87
2023-02-05T17:27:33.895Z,13.83
2023-02-05T17:30:01.863Z,25.60
2023-02-05T17:32:30.062Z,39.97
2023-02-05T17:34:57.961Z,24.67
2023-02-05T17:37:27.190Z,9.60
2023-02-05T17:39:56.753Z,7.70
2023-02-05T17:42:25.647Z,3.83
2023-02-05T17:44:53.804Z,6.90
2023-02-05T17:47:21.697Z,4.03
2023-02-05T17:49:49.543Z,7.27
2023-02-05T17:52:17.492Z,9.53
2023-02-05T17:54:46.816Z,8.93
2023-02-05T17:57:16.993Z,13.20
2023-02-05T17:59:45.009Z,12.33
2023-02-05T18:02:13.115Z,14.53
2023-02-05T18:04:41.136Z,10.90
2023-02-05T18:07:13.834Z,10.13
2023-02-05T18:09:41.756Z,12.60
2023-02-05T18:12:11.690Z,8.13
2023-02-05T18:14:39.606Z,9.30
2023-02-05T18:17:07.456Z,10.97
2023-02-05T18:19:35.861Z,11.97
2023-02-05T18:22:03.747Z,9.77
2023-02-05T18:24:31.759Z,7.53
2023-02-05T18:26:59.622Z,9.60
2023-02-05T18:29:29.005Z,12.80
2023-02-05T18:31:56.907Z,10.83
2023-02-05T18:34:25.029Z,18.67
2023-02-05T18:36:52.900Z,12.50
2023-02-05T18:39:20.838Z,6.37
2023-02-05T18:41:48.710Z,9.53
2023-02-05T18:44:16.800Z,9.23
2023-02-05T18:46:46.341Z,9.57
2023-02-05T18:49:14.388Z,8.13
2023-02-05T18:51:42.316Z,7.93
2023-02-05T18:54:10.206Z,8.77
2023-02-05T18:56:38.235Z,12.53
2023-02-05T18:59:07.213Z,13.97
2023-02-05T19:01:36.605Z,13.53
2023-02-05T19:04:07.082Z,6.90
2023-02-05T19:06:34.943Z,9.03
2023-02-05T19:09:03.238Z,9.30
2023-02-05T19:11:31.614Z,14.13
2023-02-05T19:14:00.566Z,12.43
2023-02-05T19:16:29.429Z,11.73
2023-02-05T19:18:57.872Z,24.50
2023-02-05T19:21:29.160Z,28.67
2023-02-05T19:23:57.693Z,18.80
2023-02-05T19:26:26.422Z,14.73
2023-02-05T19:28:55.999Z,12.23
2023-02-05T19:31:24.579Z,14.77
2023-02-05T19:33:52.512Z,13.73
2023-02-05T19:36:20.425Z,13.23
2023-02-05T19:38:49.774Z,14.30
2023-02-05T19:41:18.549Z,18.03
2023-02-05T19:43:50.855Z,18.10
2023-02-05T19:46:19.138Z,23.17
2023-02-05T19:48:47.139Z,27.73
2023-02-05T19:51:15.411Z,20.00
2023-02-05T19:53:45.277Z,22.60
2023-02-05T19:56:15.238Z,17.90
2023-02-05T19:58:44.453Z,19.67
2023-02-05T20:01:13.250Z,16.73
2023-02-05T20:03:41.294Z,13.33
2023-02-05T20:06:09.719Z,13.43
2023-02-05T20:08:37.968Z,8.73
2023-02-05T20:11:06.171Z,9.43
2023-02-05T20:13:35.969Z,12.33
2023-02-05T20:16:04.030Z,16.10
2023-02-05T20:18:32.040Z,14.73
2023-02-05T20:21:00.512Z,10.07
2023-02-05T20:23:28.361Z,16.20
2023-02-05T20:25:57.649Z,8.47
2023-02-05T20:28:26.819Z,10.60
2023-02-05T20:31:13.555Z,8.80
2023-02-05T20:33:43.080Z,12.27
2023-02-05T20:36:12.092Z,8.67
2023-02-05T20:38:40.940Z,8.07
2023-02-05T20:41:12.548Z,5.67
2023-02-05T20:43:40.518Z,8.93
2023-02-05T20:46:10.951Z,11.00
2023-02-05T20:48:40.444Z,7.30
2023-02-05T20:51:09.062Z,7.93
2023-02-05T20:53:37.057Z,9.23
2023-02-05T20:56:05.282Z,9.07
2023-02-05T20:58:33.243Z,10.17
2023-02-05T21:01:06.541Z,9.80
2023-02-05T21:03:35.835Z,11.40
2023-02-05T21:06:03.766Z,8.63
2023-02-05T21:08:31.692Z,10.53
2023-02-05T21:10:59.573Z,11.70
2023-02-05T21:13:27.472Z,7.23
2023-02-05T21:15:55.549Z,12.60
2023-02-05T21:18:23.658Z,6.17
2023-02-05T21:20:53.192Z,15.47
2023-02-05T21:23:21.430Z,9.30
2023-02-05T21:25:49.355Z,9.00
2023-02-05T21:28:19.012Z,9.37
2023-02-05T21:30:51.077Z,8.17
2023-02-05T21:33:19.024Z,10.57
2023-02-05T21:35:46.873Z,6.27
2023-02-05T21:38:16.126Z,10.23
2023-02-05T21:40:44.051Z,9.00
2023-02-05T21:43:12.266Z,10.97
2023-02-05T21:45:40.283Z,8.60
2023-02-05T21:48:09.048Z,14.30
2023-02-05T21:50:38.588Z,13.17
2023-02-05T21:53:06.948Z,12.70
2023-02-05T21:55:36.254Z,17.30
2023-02-05T21:58:04.157Z,13.30
2023-02-05T22:00:32.120Z,8.83
2023-02-05T22:02:59.995Z,11.43
2023-02-05T22:05:27.884Z,7.93
2023-02-05T22:07:55.782Z,9.07
2023-02-05T22:10:23.650Z,6.93
2023-02-05T22:12:52.946Z,9.97
2023-02-05T22:15:20.861Z,13.50
2023-02-05T22:17:48.759Z,14.07
2023-02-05T22:20:16.642Z,17.03
2023-02-05T22:22:44.559Z,8.83
2023-02-05T22:25:12.528Z,11.07
2023-02-05T22:27:40.489Z,11.80
2023-02-05T22:30:11.359Z,10.00
2023-02-05T22:32:39.267Z,8.43
2023-02-05T22:35:07.835Z,14.37
2023-02-05T22:37:35.971Z,15.00
2023-02-05T22:40:03.866Z,10.27
2023-02-05T22:42:31.707Z,16.43
2023-02-05T22:44:59.618Z,13.23
2023-02-05T22:47:29.235Z,19.73
2023-02-05T22:49:57.108Z,7.97
2023-02-05T22:52:26.251Z,9.77
2023-02-05T22:54:54.107Z,14.53
2023-02-05T22:57:22.027Z,8.63
2023-02-05T22:59:49.929Z,9.07
2023-02-05T23:02:17.806Z,10.83
2023-02-05T23:04:47.040Z,11.27
2023-02-05T23:07:14.935Z,11.87
2023-02-05T23:09:42.871Z,12.27
2023-02-05T23:12:11.431Z,15.70
2023-02-05T23:14:39.375Z,9.73
2023-02-05T23:17:07.251Z,17.07
2023-02-05T23:19:35.107Z,7.73
2023-02-05T23:22:09.648Z,10.10
2023-02-05T23:24:37.748Z,10.07
2023-02-05T23:27:05.777Z,8.30
2023-02-05T23:29:33.688Z,8.90
2023-02-05T23:32:01.537Z,8.73
2023-02-05T23:34:31.983Z,10.00
2023-02-05T23:37:00.054Z,9.13
2023-02-05T23:39:29.327Z,8.13
2023-02-05T23:41:57.212Z,11.03
2023-02-05T23:44:25.105Z,10.07
2023-02-05T23:46:53.030Z,7.90
2023-02-05T23:49:22.028Z,7.63
2023-02-05T23:51:50.168Z,9.77
2023-02-05T23:54:18.103Z,8.13
2023-02-05T23:56:47.402Z,7.50
2023-02-05T23:59:15.500Z,10.17
